Time;durP1;ratioP1;P1;durP2;ratioP2;P2;SDS_P1;SDS_P2;PMS_P1;PMS_P2;Temp;Humidity;BMP_temperature;BMP_pressure;BME280_temperature;BME280_humidity;BME280_pressure;Samples;Min_cycle;Max_cycle;Signal;HPM_P1;HPM_P2
2021/06/07 00:01:54;;;;;;;4.53;3.27;;;;;;;20.56;60.38;99378.17;1765968;79;21018;-65
2021/06/07 00:04:24;;;;;;;5.80;3.60;;;;;;;20.56;60.39;99374.13;1770156;79;21030;-64
2021/06/07 00:06:51;;;;;;;4.80;3.77;;;;;;;20.55;60.38;99371.16;1770389;79;21103;-65
2021/06/07 00:09:19;;;;;;;4.22;3.52;;;;;;;20.54;60.38;99370.05;1769785;80;21200;-67
2021/06/07 00:11:50;;;;;;;5.87;4.08;;;;;;;20.54;60.41;99374.91;1773215;79;21061;-67
2021/06/07 00:14:20;;;;;;;5.87;4.17;;;;;;;20.53;60.44;99370.58;1784794;78;20990;-66
2021/06/07 00:16:47;;;;;;;5.78;4.58;;;;;;;20.54;60.47;99374.09;1772015;78;21580;-67
2021/06/07 00:19:17;;;;;;;4.83;4.42;;;;;;;20.51;60.47;99371.33;1772977;78;21149;-67
2021/06/07 00:21:46;;;;;;;5.65;4.15;;;;;;;20.51;60.52;99370.52;1768588;78;21081;-67
2021/06/07 00:24:16;;;;;;;5.17;4.67;;;;;;;20.49;60.52;99364.01;1771734;80;21017;-68
2021/06/07 00:26:46;;;;;;;5.65;4.60;;;;;;;20.49;60.53;99369.41;1768398;78;21576;-67
2021/06/07 00:29:14;;;;;;;5.60;4.50;;;;;;;20.49;60.51;99376.16;1775304;79;21069;-68
2021/06/07 00:31:41;;;;;;;5.00;4.25;;;;;;;20.48;60.54;99369.13;1761619;78;21024;-66
2021/06/07 00:34:08;;;;;;;4.75;4.10;;;;;;;20.47;60.54;99374.77;1761146;78;21044;-67
2021/06/07 00:36:36;;;;;;;5.12;4.62;;;;;;;20.46;60.56;99373.95;1775509;80;21524;-67
2021/06/07 00:39:07;;;;;;;6.87;4.35;;;;;;;20.46;60.58;99373.95;1788399;79;21025;-66
2021/06/07 00:41:33;;;;;;;4.65;4.00;;;;;;;20.45;60.57;99385.79;1764911;80;21506;-67
2021/06/07 00:44:02;;;;;;;6.70;4.08;;;;;;;20.43;60.58;99373.08;1774018;80;21963;-67
2021/06/07 00:46:28;;;;;;;5.42;4.85;;;;;;;20.43;60.56;99370.38;1772185;80;21074;-67
2021/06/07 00:48:56;;;;;;;4.85;4.10;;;;;;;20.43;60.52;99371.73;1772694;78;21121;-67
2021/06/07 00:51:23;;;;;;;4.72;4.20;;;;;;;20.43;60.52;99370.38;1775588;78;21518;-66
2021/06/07 00:53:49;;;;;;;4.33;3.92;;;;;;;20.41;60.58;99379.24;1793692;78;20989;-67
2021/06/07 00:56:16;;;;;;;6.85;4.20;;;;;;;20.40;60.61;99370.88;1773359;78;21192;-67
2021/06/07 00:58:47;;;;;;;5.25;3.98;;;;;;;20.39;60.61;99368.69;1777103;78;21212;-66
2021/06/07 01:01:17;;;;;;;5.05;4.03;;;;;;;20.37;60.62;99378.91;1774048;80;20975;-68
2021/06/07 01:03:45;;;;;;;4.20;3.87;;;;;;;20.36;60.65;99380.52;1769213;78;21347;-66
2021/06/07 01:06:12;;;;;;;4.97;4.05;;;;;;;20.34;60.66;99379.41;1770234;78;21142;-66
2021/06/07 01:08:41;;;;;;;5.65;3.92;;;;;;;20.33;60.69;99375.05;1774509;78;21018;-67
2021/06/07 01:11:08;;;;;;;4.40;3.92;;;;;;;20.33;60.70;99376.94;1788684;78;21036;-67
2021/06/07 01:13:37;;;;;;;8.33;4.30;;;;;;;20.31;60.73;99379.88;1767956;81;22103;-67
2021/06/07 01:16:04;;;;;;;5.42;3.98;;;;;;;20.31;60.75;99383.11;1756370;81;21089;-67
2021/06/07 01:18:31;;;;;;;4.92;4.03;;;;;;;20.30;60.79;99388.20;1754795;81;21109;-66
2021/06/07 01:21:05;;;;;;;8.58;4.25;;;;;;;20.29;60.77;99386.58;1755149;80;21068;-66
2021/06/07 01:23:32;;;;;;;9.00;4.22;;;;;;;20.28;60.76;99386.27;1766543;80;21040;-68
2021/06/07 01:26:01;;;;;;;4.70;3.83;;;;;;;20.26;60.76;99391.91;1758452;80;21097;-66
2021/06/07 01:28:27;;;;;;;5.25;4.20;;;;;;;20.25;60.77;99390.81;1769829;80;21515;-66
2021/06/07 01:30:56;;;;;;;4.20;3.80;;;;;;;20.23;60.81;99390.52;1769758;80;21022;-67
2021/06/07 01:33:24;;;;;;;4.78;4.05;;;;;;;20.23;60.80;99398.61;1786080;79;22153;-66
2021/06/07 01:35:54;;;;;;;10.60;4.65;;;;;;;20.21;60.77;99395.88;1780959;79;21616;-67
2021/06/07 01:38:20;;;;;;;3.95;3.55;;;;;;;20.20;60.80;99399.10;1735416;80;21017;-67
2021/06/07 01:40:50;;;;;;;4.65;4.15;;;;;;;20.20;60.80;99394.22;1779143;80;21026;-67
2021/06/07 01:43:16;;;;;;;4.10;3.60;;;;;;;20.19;60.84;99404.73;1773193;79;21029;-67
2021/06/07 01:45:46;;;;;;;4.15;3.75;;;;;;;20.19;60.88;99406.08;1770995;80;21238;-67
2021/06/07 01:48:13;;;;;;;5.00;3.98;;;;;;;20.18;60.91;99401.73;1766614;80;21037;-67
2021/06/07 01:50:39;;;;;;;5.72;3.98;;;;;;;20.18;60.94;99403.89;1776785;79;21584;-68
2021/06/07 01:53:08;;;;;;;5.62;4.03;;;;;;;20.17;60.92;99398.77;1749427;80;21087;-68
2021/06/07 01:55:41;;;;;;;5.53;4.22;;;;;;;20.15;60.89;99396.30;1776688;79;22156;-67
2021/06/07 01:58:09;;;;;;;5.25;3.85;;;;;;;20.15;60.91;99394.95;1773342;79;21112;-68
2021/06/07 02:00:45;;;;;;;5.33;4.22;;;;;;;20.14;60.94;99397.88;1770564;79;21049;-68
2021/06/07 02:03:16;;;;;;;4.58;3.77;;;;;;;20.12;60.98;99398.11;1765971;79;21007;-69
2021/06/07 02:05:42;;;;;;;5.00;3.80;;;;;;;20.11;61.02;99393.79;1769895;79;21065;-68
2021/06/07 02:08:11;;;;;;;4.20;3.80;;;;;;;20.10;61.09;99392.14;1774098;78;21033;-68
2021/06/07 02:10:42;;;;;;;5.03;3.95;;;;;;;20.10;61.10;99401.58;1769386;79;21139;-69
2021/06/07 02:13:09;;;;;;;5.92;4.08;;;;;;;20.10;61.13;99405.63;1772454;79;21584;-67
2021/06/07 02:15:39;;;;;;;4.08;3.65;;;;;;;20.08;61.16;99405.58;1775221;79;21247;-68
2021/06/07 02:18:09;;;;;;;4.67;3.92;;;;;;;20.08;61.18;99409.09;1773967;79;21132;-68
2021/06/07 02:20:37;;;;;;;5.22;3.75;;;;;;;20.07;61.23;99407.97;1770304;79;21326;-66
2021/06/07 02:23:04;;;;;;;5.05;4.35;;;;;;;19.98;61.22;99390.02;1774034;79;21133;-67
2021/06/07 02:25:30;;;;;;;6.08;3.62;;;;;;;20.06;61.24;99409.05;1772889;79;21026;-67
2021/06/07 02:27:57;;;;;;;9.05;4.47;;;;;;;20.04;61.29;99406.58;1769443;79;21105;-67
2021/06/07 02:30:27;;;;;;;4.87;4.47;;;;;;;20.03;61.34;99407.12;1768763;79;21017;-66
2021/06/07 02:32:55;;;;;;;5.25;3.98;;;;;;;20.04;61.37;99406.58;1767354;79;21068;-67
2021/06/07 02:35:21;;;;;;;7.67;4.22;;;;;;;20.02;61.40;99413.55;1737446;80;21847;-69
2021/06/07 02:37:51;;;;;;;4.58;3.90;;;;;;;20.01;61.43;99414.63;1760737;79;21065;-67
2021/06/07 02:40:20;;;;;;;4.55;4.15;;;;;;;20.00;61.50;99422.95;1756410;79;21093;-67
2021/06/07 02:42:46;;;;;;;5.58;4.12;;;;;;;19.99;61.62;99421.30;1759909;79;21042;-67
2021/06/07 02:45:15;;;;;;;4.15;3.75;;;;;;;19.98;61.66;99425.06;1755500;79;21459;-67
2021/06/07 02:47:43;;;;;;;7.53;5.08;;;;;;;19.97;61.76;99429.64;1755174;79;21150;-67
2021/06/07 02:50:11;;;;;;;4.40;3.70;;;;;;;19.97;61.86;99422.06;1765990;79;21073;-67
2021/06/07 02:52:47;;;;;;;4.83;4.22;;;;;;;19.96;61.92;99428.52;1763015;79;21058;-67
2021/06/07 02:55:21;;;;;;;4.72;3.98;;;;;;;19.96;62.06;99428.52;1765139;79;21486;-67
2021/06/07 02:57:49;;;;;;;5.50;3.90;;;;;;;19.95;62.14;99434.45;1763615;80;21066;-67
2021/06/07 03:00:20;;;;;;;5.35;4.20;;;;;;;19.96;62.23;99435.27;1762613;79;21207;-67
2021/06/07 03:02:48;;;;;;;4.08;3.67;;;;;;;19.96;62.29;99433.91;1764340;79;21022;-67
2021/06/07 03:05:14;;;;;;;6.75;4.12;;;;;;;19.97;62.33;99428.80;1762315;79;21074;-65
2021/06/07 03:07:41;;;;;;;4.53;3.60;;;;;;;19.98;62.42;99426.41;1759570;79;21037;-65
2021/06/07 03:10:11;;;;;;;5.65;4.03;;;;;;;19.99;62.48;99424.83;1760987;79;21533;-65
2021/06/07 03:12:39;;;;;;;5.85;4.22;;;;;;;20.00;62.56;99420.25;1757355;79;21108;-65
2021/06/07 03:15:09;;;;;;;5.70;4.33;;;;;;;20.01;62.64;99417.83;1757397;80;20999;-66
2021/06/07 03:17:35;;;;;;;4.90;3.95;;;;;;;20.00;62.71;99412.97;1768800;79;21089;-67
2021/06/07 03:20:06;;;;;;;9.20;4.40;;;;;;;20.02;62.76;99411.39;1770034;79;21509;-68
2021/06/07 03:22:33;;;;;;;5.60;4.42;;;;;;;20.04;62.84;99410.62;1765194;79;21140;-66
2021/06/07 03:25:00;;;;;;;6.42;4.80;;;;;;;20.05;62.90;99412.28;1762436;79;21534;-68
2021/06/07 03:27:26;;;;;;;5.12;4.42;;;;;;;20.07;62.93;99415.55;1757444;79;21061;-68
2021/06/07 03:29:53;;;;;;;6.80;4.30;;;;;;;20.10;63.03;99411.02;1761550;79;21500;-69
2021/06/07 03:32:19;;;;;;;5.25;4.42;;;;;;;20.12;63.08;99413.48;1762675;79;21581;-68
2021/06/07 03:34:46;;;;;;;9.50;4.78;;;;;;;20.14;63.03;99412.17;1759916;80;20994;-67
2021/06/07 03:37:13;;;;;;;6.12;4.22;;;;;;;20.16;63.03;99406.01;1765617;79;21097;-68
2021/06/07 03:39:41;;;;;;;5.08;3.85;;;;;;;20.19;63.10;99413.63;1763079;80;21053;-66
2021/06/07 03:42:08;;;;;;;6.15;4.03;;;;;;;20.20;63.09;99409.05;1759164;80;21560;-67
2021/06/07 03:44:34;;;;;;;7.72;4.17;;;;;;;20.24;63.11;99415.60;1763683;79;21081;-69
2021/06/07 03:47:01;;;;;;;4.97;4.00;;;;;;;20.25;63.07;99418.59;1761990;80;21656;-68
2021/06/07 03:51:39;;;;;;;5.28;4.08;;;;;;;20.34;63.12;99414.47;1876635;74;22624;-67
2021/06/07 03:54:05;;;;;;;4.95;4.28;;;;;;;20.31;63.11;99412.78;1849883;75;21616;-67
2021/06/07 03:56:32;;;;;;;6.67;3.67;;;;;;;20.34;63.01;99416.33;1845228;75;21103;-67
2021/06/07 03:58:58;;;;;;;4.83;4.28;;;;;;;20.37;62.90;99418.56;1850004;77;22094;-67
2021/06/07 04:01:25;;;;;;;6.95;4.67;;;;;;;20.39;62.84;99415.09;1848225;76;21053;-69
2021/06/07 04:03:52;;;;;;;5.00;4.55;;;;;;;20.40;62.81;99416.20;1852098;77;21080;-68
2021/06/07 04:06:20;;;;;;;7.62;5.28;;;;;;;20.43;62.72;99424.34;1853345;77;21423;-70
2021/06/07 04:08:47;;;;;;;9.05;6.15;;;;;;;20.45;62.60;99426.26;1855618;77;21156;-68
2021/06/07 04:11:14;;;;;;;10.13;5.45;;;;;;;20.46;62.57;99433.31;1853458;75;20914;-69
2021/06/07 04:13:41;;;;;;;9.98;5.37;;;;;;;20.48;62.62;99435.23;1855073;77;20934;-69
2021/06/07 04:16:07;;;;;;;6.87;5.12;;;;;;;20.49;62.62;99440.09;1854131;75;21076;-68
2021/06/07 04:18:35;;;;;;;5.65;4.90;;;;;;;20.50;62.59;99439.86;1848915;75;21061;-67
2021/06/07 04:21:02;;;;;;;7.85;5.20;;;;;;;20.51;62.50;99436.09;1855663;76;21260;-68
2021/06/07 04:23:28;;;;;;;5.70;5.20;;;;;;;20.53;62.40;99435.85;1848498;75;20987;-68
2021/06/07 04:25:55;;;;;;;7.70;4.97;;;;;;;20.52;62.26;99439.09;1852591;75;21006;-67
2021/06/07 04:28:21;;;;;;;7.10;4.78;;;;;;;20.53;62.18;99438.05;1850882;75;20982;-67
2021/06/07 04:30:48;;;;;;;6.25;5.20;;;;;;;20.55;62.12;99439.97;1853006;76;21507;-66
2021/06/07 04:33:14;;;;;;;6.70;4.83;;;;;;;20.56;62.09;99436.19;1854065;75;21119;-66
2021/06/07 04:35:40;;;;;;;6.72;5.10;;;;;;;20.57;62.09;99436.50;1850678;75;21022;-68
2021/06/07 04:38:07;;;;;;;7.28;5.97;;;;;;;20.59;62.13;99437.58;1849526;77;21026;-69
2021/06/07 04:40:37;;;;;;;8.40;7.00;;;;;;;20.60;62.15;99437.91;1844935;75;21069;-68
2021/06/07 04:43:07;;;;;;;8.10;6.53;;;;;;;20.60;62.13;99440.08;1855883;77;21006;-67
2021/06/07 04:45:33;;;;;;;7.80;6.15;;;;;;;20.60;62.13;99440.08;1848501;75;21782;-67
2021/06/07 04:48:00;;;;;;;6.95;5.50;;;;;;;20.60;62.22;99445.47;1855374;77;20971;-67
2021/06/07 04:50:29;;;;;;;11.53;5.90;;;;;;;20.61;62.21;99449.83;1837882;76;21046;-67
2021/06/07 04:53:00;;;;;;;9.48;5.75;;;;;;;20.62;62.17;99451.45;1825684;77;21512;-67
2021/06/07 04:55:47;;;;;;;11.00;5.67;;;;;;;20.64;62.11;99459.30;1830469;78;21035;-66
2021/06/07 04:58:27;;;;;;;7.87;6.90;;;;;;;20.66;62.03;99457.72;1830212;77;21123;-67
2021/06/07 05:01:00;;;;;;;7.25;6.58;;;;;;;20.67;61.91;99458.00;1829986;78;21062;-66
2021/06/07 05:03:27;;;;;;;7.78;6.17;;;;;;;20.68;61.83;99462.34;1828233;78;21067;-66
2021/06/07 05:05:55;;;;;;;7.17;6.47;;;;;;;20.69;61.75;99457.25;1825752;78;21095;-66
2021/06/07 05:08:23;;;;;;;7.22;6.53;;;;;;;20.70;61.69;99454.83;1829076;78;22181;-68
2021/06/07 05:10:51;;;;;;;6.85;6.15;;;;;;;20.72;61.70;99460.27;1829736;78;20988;-68
2021/06/07 05:13:17;;;;;;;9.28;7.72;;;;;;;20.75;61.57;99456.28;1825354;78;22386;-67
2021/06/07 05:15:44;;;;;;;7.87;7.05;;;;;;;20.77;61.49;99454.97;1825533;78;21043;-66
2021/06/07 05:18:11;;;;;;;9.30;7.67;;;;;;;20.79;61.43;99451.49;1824404;78;21024;-67
2021/06/07 05:20:38;;;;;;;8.68;7.40;;;;;;;20.79;61.43;99454.73;1823102;78;21005;-66
2021/06/07 05:23:05;;;;;;;8.40;7.45;;;;;;;20.80;61.36;99457.70;1827387;78;21118;-66
2021/06/07 05:25:33;;;;;;;7.85;7.05;;;;;;;20.83;61.33;99453.19;1827315;78;21062;-69
2021/06/07 05:28:00;;;;;;;8.53;7.10;;;;;;;20.84;61.33;99459.39;1826384;78;21071;-66
2021/06/07 05:30:28;;;;;;;8.83;6.97;;;;;;;20.85;61.36;99459.70;1820854;78;21111;-67
2021/06/07 05:32:54;;;;;;;9.48;7.15;;;;;;;20.87;61.36;99461.63;1829674;78;21527;-66
2021/06/07 05:35:23;;;;;;;7.75;6.00;;;;;;;20.89;61.39;99448.16;1825880;78;21131;-67
2021/06/07 05:37:49;;;;;;;7.30;5.90;;;;;;;20.92;61.37;99455.78;1821423;78;21051;-67
2021/06/07 05:40:17;;;;;;;7.95;5.97;;;;;;;20.96;61.33;99455.58;1821597;77;21055;-68
2021/06/07 05:42:46;;;;;;;8.05;5.72;;;;;;;20.98;61.36;99456.70;1828208;77;21114;-69
2021/06/07 05:45:12;;;;;;;5.95;5.35;;;;;;;21.00;61.33;99454.57;1827637;77;21555;-68
2021/06/07 05:47:39;;;;;;;8.50;6.08;;;;;;;21.04;61.36;99459.77;1819743;77;21099;-68
2021/06/07 05:50:09;;;;;;;5.90;5.30;;;;;;;21.07;61.34;99457.09;1825631;77;21016;-68
2021/06/07 05:52:35;;;;;;;5.72;5.22;;;;;;;21.10;61.32;99471.48;1851481;77;21084;-68
2021/06/07 05:55:03;;;;;;;5.92;5.33;;;;;;;21.13;61.36;99465.06;1851998;76;21061;-69
2021/06/07 05:57:29;;;;;;;38.65;29.98;;;;;;;21.15;61.35;99464.28;1853397;77;21022;-69
2021/06/07 05:59:55;;;;;;;23.65;16.42;;;;;;;21.19;61.31;99464.62;1836395;75;21107;-69
2021/06/07 06:02:23;;;;;;;20.45;13.00;;;;;;;21.23;61.19;99463.57;1848860;77;21060;-69
2021/06/07 06:04:49;;;;;;;13.05;10.58;;;;;;;21.26;61.13;99454.98;1852809;77;20971;-67
2021/06/07 06:07:15;;;;;;;13.68;9.33;;;;;;;21.29;61.05;99459.37;1847946;76;21658;-67
2021/06/07 06:09:42;;;;;;;9.20;8.10;;;;;;;21.32;61.00;99454.00;1845697;75;20998;-66
2021/06/07 06:12:10;;;;;;;20.50;14.78;;;;;;;21.35;60.93;99461.09;1851631;76;21099;-66
2021/06/07 06:14:37;;;;;;;10.68;8.85;;;;;;;21.39;61.12;99459.53;1849447;77;21034;-65
2021/06/07 06:17:06;;;;;;;8.60;6.05;;;;;;;21.44;62.83;99466.10;1853301;76;21010;-67
2021/06/07 06:19:33;;;;;;;7.97;5.92;;;;;;;21.50;63.09;99465.11;1842242;77;21019;-66
2021/06/07 06:22:03;;;;;;;11.68;5.40;;;;;;;21.55;63.37;99468.72;1852776;77;21482;-66
2021/06/07 06:24:27;;;;;;;7.05;5.50;;;;;;;21.62;63.48;99461.80;1854180;77;22202;-66
2021/06/07 06:26:54;;;;;;;7.75;6.03;;;;;;;21.69;63.46;99457.56;1848133;77;21065;-67
2021/06/07 06:29:20;;;;;;;10.45;6.67;;;;;;;21.75;63.33;99453.35;1854097;77;20987;-66
2021/06/07 06:31:48;;;;;;;8.80;6.65;;;;;;;21.82;63.56;99455.86;1851952;77;21482;-67
2021/06/07 06:34:14;;;;;;;10.80;7.55;;;;;;;21.88;63.80;99458.92;1851369;77;21006;-68
2021/06/07 06:36:41;;;;;;;10.45;6.85;;;;;;;21.94;64.05;99463.87;1845864;75;21129;-67
2021/06/07 06:39:07;;;;;;;9.68;6.47;;;;;;;22.01;64.08;99467.22;1854931;77;21010;-67
2021/06/07 06:41:35;;;;;;;8.10;7.28;;;;;;;22.08;64.19;99461.61;1844956;75;20979;-66
2021/06/07 06:44:04;;;;;;;7.60;6.12;;;;;;;22.14;64.18;99460.09;1854224;75;20967;-65
2021/06/07 06:46:31;;;;;;;8.38;6.15;;;;;;;22.22;64.30;99462.89;1852540;75;20974;-67
2021/06/07 06:48:58;;;;;;;11.12;6.35;;;;;;;22.29;64.14;99462.72;1844260;77;21162;-69
2021/06/07 06:51:25;;;;;;;42.35;31.40;;;;;;;22.35;64.28;99462.55;1845274;75;21486;-68
2021/06/07 06:53:51;;;;;;;13.98;9.53;;;;;;;22.43;64.63;99468.05;1859590;75;21515;-68
2021/06/07 06:56:18;;;;;;;10.35;8.23;;;;;;;22.48;64.59;99468.09;1862315;75;21049;-68
2021/06/07 06:58:44;;;;;;;10.23;7.47;;;;;;;22.54;64.59;99468.45;1860744;75;20990;-67
2021/06/07 07:01:13;;;;;;;9.55;6.75;;;;;;;22.61;64.28;99468.79;1864163;75;21094;-67
2021/06/07 07:03:39;;;;;;;9.63;7.10;;;;;;;22.67;64.05;99468.58;1863966;75;21037;-68
2021/06/07 07:06:07;;;;;;;8.20;6.85;;;;;;;22.75;63.72;99464.59;1858147;75;20986;-69
2021/06/07 07:08:33;;;;;;;8.38;6.70;;;;;;;22.82;63.50;99465.22;1862936;75;20982;-66
2021/06/07 07:11:01;;;;;;;8.33;6.90;;;;;;;22.90;63.31;99455.81;1855028;77;21006;-68
2021/06/07 07:13:30;;;;;;;7.92;6.60;;;;;;;22.97;63.00;99459.14;1853417;75;21092;-67
2021/06/07 07:15:56;;;;;;;8.20;6.65;;;;;;;23.03;62.64;99455.98;1829140;76;21532;-70
2021/06/07 07:18:23;;;;;;;7.33;6.50;;;;;;;23.09;62.17;99448.98;1860251;76;20993;-68
2021/06/07 07:20:49;;;;;;;8.65;6.47;;;;;;;23.15;61.88;99454.72;1861527;75;21056;-67
2021/06/07 07:23:16;;;;;;;9.80;6.45;;;;;;;23.21;61.58;99448.80;1863474;77;21064;-71
2021/06/07 07:25:42;;;;;;;6.70;6.00;;;;;;;23.28;61.15;99454.02;1860738;75;21751;-69
2021/06/07 07:28:09;;;;;;;28.30;18.02;;;;;;;23.33;60.69;99449.98;1859540;75;21021;-67
2021/06/07 07:30:35;;;;;;;68.65;37.08;;;;;;;23.39;60.47;99453.55;1854374;75;21095;-67
2021/06/07 07:33:03;;;;;;;27.30;16.75;;;;;;;23.45;60.40;99452.50;1859820;75;20950;-66
2021/06/07 07:35:29;;;;;;;22.00;13.10;;;;;;;23.51;60.18;99450.13;1860755;76;21474;-67
2021/06/07 07:37:58;;;;;;;14.05;8.95;;;;;;;23.56;59.96;99448.80;1859911;75;21125;-67
2021/06/07 07:40:25;;;;;;;15.08;9.53;;;;;;;23.62;59.66;99452.36;1861088;76;21493;-69
2021/06/07 07:42:55;;;;;;;13.68;8.38;;;;;;;23.66;59.22;99451.59;1862582;75;21606;-67
2021/06/07 07:45:21;;;;;;;10.35;8.70;;;;;;;23.72;59.24;99460.03;1859820;75;21165;-69
2021/06/07 07:47:48;;;;;;;10.55;8.33;;;;;;;23.77;59.23;99456.52;1855344;75;21073;-66
2021/06/07 07:50:17;;;;;;;10.65;7.83;;;;;;;23.82;59.00;99454.43;1868461;75;21034;-68
2021/06/07 07:52:44;;;;;;;11.08;7.25;;;;;;;23.88;58.98;99449.30;1843704;76;21035;-67
2021/06/07 07:55:14;;;;;;;8.63;6.60;;;;;;;23.92;58.95;99453.12;1852999;76;21034;-67
2021/06/07 07:57:41;;;;;;;13.80;7.20;;;;;;;23.96;58.69;99456.94;1855238;77;20990;-69
2021/06/07 08:00:10;;;;;;;10.38;6.83;;;;;;;24.01;58.41;99454.26;1857497;75;21058;-69
2021/06/07 08:02:39;;;;;;;9.00;6.83;;;;;;;24.07;58.23;99460.53;1849764;75;21149;-70
2021/06/07 08:05:07;;;;;;;9.13;6.62;;;;;;;24.11;58.15;99458.91;1859029;76;21451;-68
2021/06/07 08:07:34;;;;;;;7.37;6.00;;;;;;;24.17;57.96;99462.47;1849115;75;21048;-67
2021/06/07 08:10:01;;;;;;;7.30;5.78;;;;;;;24.22;57.51;99467.91;1810056;77;21486;-71
2021/06/07 08:12:28;;;;;;;7.72;5.95;;;;;;;24.26;57.03;99459.50;1842259;75;21508;-69
2021/06/07 08:14:56;;;;;;;8.85;5.75;;;;;;;24.30;56.82;99462.80;1831262;76;21100;-67
2021/06/07 08:17:26;;;;;;;7.28;5.40;;;;;;;24.35;56.50;99456.56;1848693;75;21085;-64
2021/06/07 08:19:53;;;;;;;8.55;5.05;;;;;;;24.40;56.35;99451.70;1811822;77;21566;-67
2021/06/07 08:22:21;;;;;;;7.12;5.03;;;;;;;24.44;55.75;99460.40;1825637;76;20993;-70
2021/06/07 08:24:50;;;;;;;5.55;4.90;;;;;;;24.48;55.53;99453.89;1854860;77;21057;-66
2021/06/07 08:27:17;;;;;;;7.78;4.75;;;;;;;24.52;55.25;99455.83;1849098;76;21141;-65
2021/06/07 08:29:43;;;;;;;6.97;4.62;;;;;;;24.57;55.20;99450.13;1851322;76;21073;-63
2021/06/07 08:32:10;;;;;;;7.35;4.75;;;;;;;24.62;54.81;99455.59;1827990;76;21076;-65
2021/06/07 08:34:37;;;;;;;6.45;5.30;;;;;;;24.67;54.64;99456.97;1798505;75;20997;-68
2021/06/07 08:37:04;;;;;;;5.08;4.58;;;;;;;24.71;54.52;99461.59;1856586;77;20955;-64
2021/06/07 08:39:31;;;;;;;5.80;4.53;;;;;;;24.78;54.61;99463.23;1839700;77;21133;-65
2021/06/07 08:42:01;;;;;;;5.28;4.70;;;;;;;24.83;54.08;99461.89;1807540;77;21057;-64
2021/06/07 08:44:27;;;;;;;9.13;5.22;;;;;;;24.86;54.02;99456.73;1832047;77;21535;-65
2021/06/07 08:46:55;;;;;;;7.83;5.17;;;;;;;24.90;53.82;99455.11;1854538;75;20947;-65
2021/06/07 08:49:22;;;;;;;7.45;4.97;;;;;;;24.96;53.54;99459.20;1857135;77;21084;-64
2021/06/07 08:51:49;;;;;;;8.63;4.70;;;;;;;24.98;52.98;99448.33;1845749;75;21111;-66
2021/06/07 08:54:17;;;;;;;5.70;4.25;;;;;;;25.01;53.20;99455.91;1852564;76;21013;-66
2021/06/07 08:56:44;;;;;;;5.53;4.25;;;;;;;25.06;53.05;99454.58;1838362;76;21566;-64
2021/06/07 08:59:11;;;;;;;7.05;4.42;;;;;;;25.12;52.66;99449.95;1848468;76;21006;-65
2021/06/07 09:01:39;;;;;;;4.85;3.80;;;;;;;25.16;52.49;99449.69;1855372;77;20994;-63
2021/06/07 09:04:17;;;;;;;5.37;4.10;;;;;;;25.21;52.33;99446.97;1850337;76;21143;-63
2021/06/07 09:06:47;;;;;;;7.67;4.25;;;;;;;25.25;51.59;99451.36;1855186;76;20979;-65
2021/06/07 09:09:17;;;;;;;4.60;3.45;;;;;;;25.26;51.32;99452.97;1840585;75;21029;-65
2021/06/07 09:11:56;;;;;;;11.65;5.40;;;;;;;25.26;51.27;99448.34;1852302;75;21036;-65
2021/06/07 09:14:23;;;;;;;4.28;3.70;;;;;;;25.30;51.73;99454.06;1848514;76;21002;-64
2021/06/07 09:16:50;;;;;;;5.00;4.15;;;;;;;25.34;51.36;99451.61;1854264;76;22134;-64
2021/06/07 09:19:23;;;;;;;6.55;4.22;;;;;;;25.38;51.35;99448.61;1854835;76;21311;-65
2021/06/07 09:21:50;;;;;;;4.90;4.45;;;;;;;25.43;51.09;99448.07;1843124;75;21024;-66
2021/06/07 09:24:17;;;;;;;5.12;3.80;;;;;;;25.47;50.80;99442.34;1867174;75;20988;-65
2021/06/07 09:26:47;;;;;;;4.72;4.10;;;;;;;25.54;50.64;99437.20;1824869;76;21014;-66
2021/06/07 09:29:28;;;;;;;6.25;4.75;;;;;;;25.61;50.28;99446.70;1854373;77;21034;-67
2021/06/07 09:31:55;;;;;;;5.45;4.10;;;;;;;25.67;50.03;99440.16;1844211;75;21029;-67
2021/06/07 09:34:35;;;;;;;5.60;4.10;;;;;;;25.76;49.93;99442.31;1812667;77;21061;-67
2021/06/07 09:37:09;;;;;;;7.17;4.12;;;;;;;25.84;50.04;99439.83;1858769;75;21044;-67
2021/06/07 09:39:36;;;;;;;7.90;3.92;;;;;;;25.91;50.12;99436.86;1855407;77;21494;-66
2021/06/07 09:42:09;;;;;;;4.95;3.52;;;;;;;25.96;50.17;99427.33;1852432;76;21085;-67
2021/06/07 09:44:44;;;;;;;4.60;3.70;;;;;;;26.02;49.29;99424.02;1799086;79;21504;-68
2021/06/07 09:47:31;;;;;;;3.65;3.15;;;;;;;26.07;49.92;99418.01;1831070;76;21046;-67
2021/06/07 09:50:05;;;;;;;4.72;3.83;;;;;;;26.15;50.12;99417.17;1855185;75;21561;-68
2021/06/07 09:52:44;;;;;;;6.78;3.95;;;;;;;26.21;49.78;99417.41;1807683;78;21051;-67
2021/06/07 09:55:21;;;;;;;4.47;3.47;;;;;;;26.26;50.09;99412.75;1857080;75;21118;-67
2021/06/07 09:57:54;;;;;;;4.22;3.35;;;;;;;26.33;49.42;99403.46;1857463;76;21045;-67
2021/06/07 10:00:43;;;;;;;4.50;3.30;;;;;;;26.40;49.91;99402.06;1857648;75;21016;-68
2021/06/07 10:03:26;;;;;;;4.53;3.70;;;;;;;26.47;49.77;99397.67;1850935;75;20989;-67
2021/06/07 10:06:01;;;;;;;6.08;3.50;;;;;;;26.54;49.60;99398.71;1845878;76;20952;-68
2021/06/07 10:08:47;;;;;;;3.98;3.67;;;;;;;26.60;49.51;99394.91;1849628;75;21093;-67
2021/06/07 10:11:33;;;;;;;3.65;3.27;;;;;;;26.65;49.37;99392.94;1856100;76;21007;-67
2021/06/07 10:14:21;;;;;;;3.70;3.40;;;;;;;26.71;49.08;99378.73;1855342;75;21462;-68
2021/06/07 10:17:01;;;;;;;3.72;3.20;;;;;;;26.78;49.10;99381.16;1853082;77;21009;-69
2021/06/07 10:19:35;;;;;;;3.95;3.40;;;;;;;26.83;48.86;99378.38;1858254;75;20983;-67
2021/06/07 10:22:02;;;;;;;5.07;3.33;;;;;;;26.89;48.86;99382.70;1853857;76;21136;-67
2021/06/07 10:24:29;;;;;;;3.80;3.40;;;;;;;26.96;48.63;99366.81;1833613;75;20989;-64
2021/06/07 10:26:56;;;;;;;3.87;3.10;;;;;;;27.02;48.72;99371.16;1840327;75;21013;-64
2021/06/07 10:29:22;;;;;;;4.03;3.40;;;;;;;27.06;48.58;99370.00;1850462;76;20994;-64
2021/06/07 10:31:49;;;;;;;4.10;3.58;;;;;;;27.13;48.57;99362.88;1846877;75;21435;-66
2021/06/07 10:34:15;;;;;;;4.33;3.35;;;;;;;27.17;48.41;99353.82;1848335;75;21127;-68
2021/06/07 10:36:47;;;;;;;3.90;3.35;;;;;;;27.23;48.37;99349.94;1851466;75;21032;-67
2021/06/07 10:39:20;;;;;;;4.40;3.17;;;;;;;27.28;48.08;99351.05;1852433;77;20940;-67
2021/06/07 10:42:01;;;;;;;3.35;3.05;;;;;;;27.32;47.77;99350.72;1855126;76;21517;-68
2021/06/07 10:44:42;;;;;;;6.17;3.58;;;;;;;27.34;47.57;99353.97;1833941;77;21466;-68
2021/06/07 10:47:14;;;;;;;4.65;3.10;;;;;;;27.36;47.74;99344.39;1855000;76;21079;-67
2021/06/07 10:49:51;;;;;;;5.58;3.27;;;;;;;27.37;47.72;99347.92;1845353;76;21076;-66
2021/06/07 10:52:24;;;;;;;4.10;3.02;;;;;;;27.40;47.12;99349.53;1846224;75;21005;-68
2021/06/07 10:55:00;;;;;;;;;;;;;;;27.44;47.66;99347.04;1866991;75;20986;-68
2021/06/07 10:57:49;;;;;;;3.70;3.05;;;;;;;27.48;47.77;99349.45;1842538;76;20542;-68
2021/06/07 11:00:39;;;;;;;4.67;3.25;;;;;;;27.48;47.84;99348.64;1861961;75;21120;-67
2021/06/07 11:03:20;;;;;;;4.35;3.05;;;;;;;27.54;47.80;99345.55;1859740;75;20966;-68
2021/06/07 11:05:49;;;;;;;4.17;2.90;;;;;;;27.62;47.53;99348.19;1821635;78;21047;-66
2021/06/07 11:08:33;;;;;;;3.22;2.92;;;;;;;27.68;47.46;99349.78;1812819;78;21501;-67
2021/06/07 11:11:21;;;;;;;6.45;3.30;;;;;;;27.73;47.54;99348.90;1802679;77;21508;-68
2021/06/07 11:13:55;;;;;;;4.95;3.42;;;;;;;27.79;47.50;99343.07;1822390;77;21139;-67
2021/06/07 11:16:38;;;;;;;6.20;3.45;;;;;;;27.84;47.43;99343.58;1822189;77;21025;-67
2021/06/07 11:19:06;;;;;;;6.60;3.25;;;;;;;27.92;47.31;99344.87;1823395;77;21549;-67
2021/06/07 11:21:43;;;;;;;8.00;3.15;;;;;;;27.98;47.09;99337.68;1792000;78;21509;-68
2021/06/07 11:24:36;;;;;;;3.35;3.05;;;;;;;28.02;46.83;99335.18;1791898;78;21024;-68
2021/06/07 11:27:04;;;;;;;3.62;2.77;;;;;;;28.09;46.55;99331.55;1823173;77;21109;-66
2021/06/07 11:29:32;;;;;;;5.08;2.90;;;;;;;28.14;46.30;99323.81;1783913;78;20998;-65
2021/06/07 11:32:14;;;;;;;6.45;3.05;;;;;;;28.20;46.22;99318.53;1823365;78;20969;-67
2021/06/07 11:34:48;;;;;;;4.25;2.98;;;;;;;28.24;46.11;99316.87;1823275;77;21456;-68
2021/06/07 11:37:19;;;;;;;3.15;2.85;;;;;;;28.29;45.94;99315.97;1791253;78;21071;-69
2021/06/07 11:39:49;;;;;;;5.03;3.25;;;;;;;28.35;45.73;99315.58;1773880;78;21757;-67
2021/06/07 11:42:20;;;;;;;4.83;2.83;;;;;;;28.40;45.52;99301.85;1787154;78;21661;-69
2021/06/07 11:44:54;;;;;;;3.83;2.98;;;;;;;28.44;45.25;99298.78;1790230;78;21509;-68